ESGP/GSE METAR and TAF weather

Enter ICAO airport designator
Station Type Date Time Source
ESGP METAR 2022/11/30 23:50 UTC NOAA

ESGP 302350Z AUTO 00000KT 9999 -DZ NCD 02/01 Q1033 REUP


Station Type Date Time Source
ESGP Decoded METAR 2022/11/30 23:50 UTC NOAA

Goteborg / Save, Sweden (ESGP) 57-47N 011-53E 53M
Nov 30, 2022 - 06:50 PM EST / 2022.11.30 2350 UTC
Wind: Calm:0
Visibility: greater than 7 mile(s):0
Weather: light drizzle
Temperature: 35 F (2 C)
Dew Point: 33 F (1 C)
Relative Humidity: 93%
Pressure (altimeter): 30.50 in. Hg (1033 hPa)
ob: ESGP 302350Z AUTO 00000KT 9999 -DZ NCD 02/01 Q1033 REUP
cycle: 0

Station Type Date Time Source
ESGP TAF 2022/06/29 06:09 UTC NOAA

TAF TAF ESGP 290530Z 2906/2918 28005KT CAVOK

Example: see airport list